createdAt,value
2023-11-08T00:02:24.187Z,101096.75
2023-11-08T00:04:51.013Z,101102.91
2023-11-08T00:07:17.945Z,101066.44
2023-11-08T00:09:44.952Z,101103.38
2023-11-08T00:12:12.469Z,101076.47
2023-11-08T00:14:39.929Z,101097.25
2023-11-08T00:17:06.998Z,101101.72
2023-11-08T00:19:34.000Z,101094.44
2023-11-08T00:22:00.831Z,101079.25
2023-11-08T00:24:28.632Z,101083.25
2023-11-08T00:26:55.644Z,101079.31
2023-11-08T00:29:24.381Z,101086.06
2023-11-08T00:31:54.694Z,101068.97
2023-11-08T00:34:21.613Z,101034.22
2023-11-08T00:36:50.276Z,101077.16
2023-11-08T00:39:19.901Z,101079.41
2023-11-08T00:41:47.024Z,101081.06
2023-11-08T00:44:14.304Z,101090.84
2023-11-08T00:46:41.214Z,101094.22
2023-11-08T00:49:08.146Z,101094.53
2023-11-08T00:51:35.134Z,101079.41
2023-11-08T00:54:02.113Z,101070.16
2023-11-08T00:56:29.134Z,101067.63
2023-11-08T00:58:56.064Z,101088.66
2023-11-08T01:01:23.969Z,101064.25
2023-11-08T01:03:56.208Z,101092.28
2023-11-08T01:06:24.913Z,101071.00
2023-11-08T01:08:51.936Z,101078.88
2023-11-08T01:11:18.877Z,101077.19
2023-11-08T01:13:47.502Z,101074.38
2023-11-08T01:16:17.350Z,101090.06
2023-11-08T01:18:44.458Z,101082.22
2023-11-08T01:21:11.772Z,101069.91
2023-11-08T01:23:40.144Z,101067.66
2023-11-08T01:26:08.006Z,101044.97
2023-11-08T01:28:53.455Z,101047.22
2023-11-08T01:31:20.216Z,101063.16
2023-11-08T01:33:47.161Z,101058.41
2023-11-08T01:36:14.321Z,101063.19
2023-11-08T01:38:41.276Z,101062.91
2023-11-08T01:41:08.103Z,101051.69
2023-11-08T01:43:35.578Z,101031.81
2023-11-08T01:46:08.977Z,101062.63
2023-11-08T01:48:36.106Z,101053.94
2023-11-08T01:51:03.576Z,101056.19
2023-11-08T01:53:30.403Z,101041.63
2023-11-08T01:55:57.383Z,101056.75
2023-11-08T01:58:24.175Z,101048.31
2023-11-08T02:00:51.463Z,101004.56
2023-11-08T02:03:18.829Z,101052.50
2023-11-08T02:05:46.236Z,101052.47
2023-11-08T02:08:13.087Z,101052.72
2023-11-08T02:10:40.749Z,101046.88
2023-11-08T02:13:08.492Z,101038.44
2023-11-08T02:15:41.505Z,101042.41
2023-11-08T02:18:08.708Z,101037.06
2023-11-08T02:20:35.724Z,101046.59
2023-11-08T02:23:02.732Z,101051.06
2023-11-08T02:25:32.581Z,101044.63
2023-11-08T02:27:59.681Z,101003.16
2023-11-08T02:30:26.563Z,101046.59
2023-11-08T02:32:53.626Z,101044.06
2023-11-08T02:35:20.435Z,101025.59
2023-11-08T02:37:47.680Z,101027.84
2023-11-08T02:40:14.575Z,101017.16
2023-11-08T02:42:45.523Z,101004.31
2023-11-08T02:45:12.709Z,101017.47
2023-11-08T02:47:39.603Z,101023.34
2023-11-08T02:50:07.304Z,101009.91
2023-11-08T02:52:34.345Z,101002.03
2023-11-08T02:55:01.189Z,101005.97
2023-11-08T02:57:28.984Z,101004.00
2023-11-08T02:59:55.918Z,100972.06
2023-11-08T03:02:23.232Z,100990.81
2023-11-08T03:04:50.156Z,101005.38
2023-11-08T03:07:17.916Z,100996.97
2023-11-08T03:09:44.712Z,100999.50
2023-11-08T03:12:11.469Z,100996.13
2023-11-08T03:14:38.254Z,100997.50
2023-11-08T03:17:05.028Z,100975.69
2023-11-08T03:19:32.370Z,100976.25
2023-11-08T03:22:02.273Z,101008.16
2023-11-08T03:24:29.367Z,100992.47
2023-11-08T03:26:56.280Z,100993.88
2023-11-08T03:29:23.115Z,100988.31
2023-11-08T03:31:49.953Z,100959.75
2023-11-08T03:34:16.869Z,100967.03
2023-11-08T03:36:44.139Z,100989.19
2023-11-08T03:39:11.400Z,100969.56
2023-11-08T03:41:38.325Z,100929.25
2023-11-08T03:44:07.040Z,100976.59
2023-11-08T03:46:33.908Z,100922.53
2023-11-08T03:49:00.853Z,100978.28
2023-11-08T03:51:28.791Z,100955.03
2023-11-08T03:53:55.835Z,100969.34
2023-11-08T03:56:22.785Z,100964.56
2023-11-08T03:58:49.964Z,100971.84
2023-11-08T04:01:17.324Z,100956.44
2023-11-08T04:03:44.476Z,100946.66
2023-11-08T04:06:11.971Z,100970.16
2023-11-08T04:08:38.769Z,100973.53
2023-11-08T04:11:05.531Z,100973.53
2023-11-08T04:13:32.520Z,100974.63
2023-11-08T04:15:59.392Z,100976.34
2023-11-08T04:18:26.543Z,100978.56
2023-11-08T04:20:53.449Z,100967.09
2023-11-08T04:23:20.299Z,100975.19
2023-11-08T04:25:50.853Z,100969.59
2023-11-08T04:28:19.125Z,100967.66
2023-11-08T04:30:47.046Z,100963.19
2023-11-08T04:33:13.974Z,100972.41
2023-11-08T04:35:41.015Z,100978.56
2023-11-08T04:38:08.238Z,100955.34
2023-11-08T04:40:35.315Z,100990.91
2023-11-08T04:43:02.133Z,100982.78
2023-11-08T04:45:29.002Z,100984.16
2023-11-08T04:47:56.065Z,100983.34
2023-11-08T04:50:22.950Z,100975.78
2023-11-08T04:52:49.831Z,100972.97
2023-11-08T04:55:16.647Z,100970.19
2023-11-08T04:57:43.622Z,100957.59
2023-11-08T05:00:11.774Z,100960.69
2023-11-08T05:02:39.545Z,100959.84
2023-11-08T05:05:07.192Z,100963.72
2023-11-08T05:07:34.111Z,100958.97
2023-11-08T05:10:01.039Z,100951.69
2023-11-08T05:12:27.998Z,100922.31
2023-11-08T05:14:54.780Z,100938.84
2023-11-08T05:17:21.739Z,100948.06
2023-11-08T05:19:48.661Z,100954.50
2023-11-08T05:22:15.570Z,100938.84
2023-11-08T05:24:42.872Z,100938.28
2023-11-08T05:27:12.709Z,100955.63
2023-11-08T05:29:39.624Z,100953.97
2023-11-08T05:32:06.644Z,100957.03
2023-11-08T05:34:33.516Z,100959.53
2023-11-08T05:37:00.300Z,100965.72
2023-11-08T05:39:28.886Z,100963.47
2023-11-08T05:41:55.835Z,100958.97
2023-11-08T05:44:23.025Z,100962.06
2023-11-08T05:46:52.584Z,100951.72
2023-11-08T05:49:19.432Z,100959.25
2023-11-08T05:51:46.261Z,100963.47
2023-11-08T05:54:14.300Z,100944.44
2023-11-08T05:56:43.011Z,100947.81
2023-11-08T05:59:09.824Z,100968.56
2023-11-08T06:01:37.230Z,100925.41
2023-11-08T06:04:05.468Z,100957.94
2023-11-08T06:06:32.418Z,100961.84
2023-11-08T06:08:59.213Z,100956.81
2023-11-08T06:11:26.144Z,100960.16
2023-11-08T06:13:53.166Z,100953.16
2023-11-08T06:16:19.976Z,100933.84
2023-11-08T06:18:47.048Z,100931.31
2023-11-08T06:21:15.067Z,100934.94
2023-11-08T06:23:44.909Z,100938.84
2023-11-08T06:26:18.472Z,100936.06
2023-11-08T06:28:45.690Z,100945.56
2023-11-08T06:31:12.469Z,100940.25
2023-11-08T06:33:40.016Z,100939.97
2023-11-08T06:36:07.232Z,100923.72
2023-11-08T06:38:34.328Z,100918.69
2023-11-08T06:41:01.389Z,100918.66
2023-11-08T06:43:28.555Z,100927.38
2023-11-08T06:45:55.461Z,100922.56
2023-11-08T06:48:22.720Z,100940.22
2023-11-08T06:50:49.545Z,100930.69
2023-11-08T06:53:19.106Z,100920.66
2023-11-08T06:55:47.732Z,100926.50
2023-11-08T06:58:14.760Z,100927.06
2023-11-08T07:00:41.666Z,100903.59
2023-11-08T07:03:10.586Z,100928.19
2023-11-08T07:05:39.030Z,100925.09
2023-11-08T07:08:07.283Z,100914.78
2023-11-08T07:10:34.484Z,100928.75
2023-11-08T07:13:01.446Z,100882.34
2023-11-08T07:15:29.424Z,100922.59
2023-11-08T07:17:56.475Z,100927.66
2023-11-08T07:20:23.736Z,100919.00
2023-11-08T07:22:50.710Z,100932.44
2023-11-08T07:25:17.685Z,100898.84
2023-11-08T07:27:44.553Z,100919.81
2023-11-08T07:30:16.389Z,100913.13
2023-11-08T07:32:47.376Z,100919.81
2023-11-08T07:35:14.893Z,100916.75
2023-11-08T07:37:41.911Z,100905.25
2023-11-08T07:40:13.273Z,100929.06
2023-11-08T07:42:40.912Z,100897.41
2023-11-08T07:45:09.923Z,100939.97
2023-11-08T07:47:37.220Z,100943.91
2023-11-08T07:50:07.781Z,100944.16
2023-11-08T07:52:34.696Z,100924.59
2023-11-08T07:55:01.950Z,100914.81
2023-11-08T07:57:29.348Z,100956.19
2023-11-08T07:59:56.234Z,100959.84
2023-11-08T08:02:23.210Z,100958.97
2023-11-08T08:04:50.451Z,100925.38
2023-11-08T08:07:17.398Z,100941.03
2023-11-08T08:09:44.277Z,100955.88
2023-11-08T08:12:13.862Z,100943.25
2023-11-08T08:14:40.668Z,100943.25
2023-11-08T08:17:07.600Z,100934.81
2023-11-08T08:19:35.001Z,100948.84
2023-11-08T08:22:03.506Z,100955.00
2023-11-08T08:24:30.669Z,100947.44
2023-11-08T08:26:57.985Z,100951.91
2023-11-08T08:29:27.500Z,100951.34
2023-11-08T08:31:54.380Z,100944.91
2023-11-08T08:34:28.665Z,100942.38
2023-11-08T08:36:58.665Z,100946.00
2023-11-08T08:39:29.654Z,100937.63
2023-11-08T08:41:57.177Z,100924.75
2023-11-08T08:44:24.846Z,100953.84
2023-11-08T08:46:52.887Z,100965.63
2023-11-08T08:49:22.085Z,100939.03
2023-11-08T08:51:50.261Z,100947.66
2023-11-08T08:54:17.757Z,100951.03
2023-11-08T08:56:50.473Z,100930.31
2023-11-08T08:59:17.835Z,100960.31
2023-11-08T09:01:44.780Z,100927.25
2023-11-08T09:04:12.257Z,100934.25
2023-11-08T09:06:40.472Z,100927.00
2023-11-08T09:09:13.488Z,100944.34
2023-11-08T09:11:42.045Z,100925.31
2023-11-08T09:14:09.646Z,100915.25
2023-11-08T09:16:39.985Z,100931.75
2023-11-08T09:19:09.180Z,100897.09
2023-11-08T09:21:36.263Z,100932.91
2023-11-08T09:24:04.915Z,100914.16
2023-11-08T09:26:31.842Z,100923.66
2023-11-08T09:28:59.823Z,100920.88
2023-11-08T09:31:29.419Z,100880.00
2023-11-08T09:33:57.780Z,100920.25
2023-11-08T09:36:26.796Z,100854.25
2023-11-08T09:38:55.492Z,100904.59
2023-11-08T09:41:23.607Z,100883.03
2023-11-08T09:43:52.651Z,100895.91
2023-11-08T09:46:20.153Z,100874.91
2023-11-08T09:48:47.396Z,100871.00
2023-11-08T09:51:14.575Z,100902.31
2023-11-08T09:53:44.426Z,100873.78
2023-11-08T09:56:14.319Z,100876.56
2023-11-08T09:58:43.200Z,100843.81
2023-11-08T10:01:13.434Z,100872.09
2023-11-08T10:03:42.389Z,100845.25
2023-11-08T10:06:09.932Z,100855.84
2023-11-08T10:08:37.341Z,100851.91
2023-11-08T10:11:07.191Z,100860.66
2023-11-08T10:13:50.931Z,100889.44
2023-11-08T10:16:18.788Z,100875.69
2023-11-08T10:19:36.229Z,100848.53
2023-11-08T10:21:49.827Z,100869.19
2023-11-08T10:24:17.736Z,100858.00
2023-11-08T10:26:44.779Z,100885.50
2023-11-08T10:29:14.427Z,100852.19
2023-11-08T10:31:45.421Z,100841.19
2023-11-08T10:34:13.111Z,100828.81
2023-11-08T10:36:40.635Z,100805.94
2023-11-08T10:39:17.509Z,100861.03
2023-11-08T10:41:45.215Z,100824.94
2023-11-08T10:44:16.357Z,100852.91
2023-11-08T10:46:43.934Z,100834.41
2023-11-08T10:49:12.893Z,100827.41
2023-11-08T10:51:41.655Z,100812.63
2023-11-08T10:54:08.890Z,100822.75
2023-11-08T10:56:36.625Z,100849.84
2023-11-08T10:59:04.711Z,100815.38
2023-11-08T11:01:32.590Z,100805.81
2023-11-08T11:04:06.334Z,100809.44
2023-11-08T11:06:37.593Z,100800.66
2023-11-08T11:09:07.857Z,100812.97
2023-11-08T11:11:34.851Z,100828.00
2023-11-08T11:14:22.308Z,100798.81
2023-11-08T11:17:02.369Z,100778.13
2023-11-08T11:19:29.631Z,100755.53
2023-11-08T11:21:58.041Z,100787.72
2023-11-08T11:24:34.283Z,100800.50
2023-11-08T11:27:01.876Z,100758.94
2023-11-08T11:29:28.659Z,100765.03
2023-11-08T11:31:55.498Z,100800.41
2023-11-08T11:34:29.174Z,100792.13
2023-11-08T11:37:11.402Z,100778.47
2023-11-08T11:39:39.759Z,100805.22
2023-11-08T11:42:10.388Z,100721.38
2023-11-08T11:44:40.358Z,100795.38
2023-11-08T11:47:10.747Z,100733.38
2023-11-08T11:49:53.484Z,100786.47
2023-11-08T11:52:21.492Z,100734.44
2023-11-08T11:54:52.361Z,100758.75
2023-11-08T11:57:23.609Z,100749.22
2023-11-08T11:59:51.537Z,100771.03
2023-11-08T12:02:19.221Z,100741.66
2023-11-08T12:04:52.375Z,100700.63
2023-11-08T12:07:20.384Z,100721.22
2023-11-08T12:09:47.763Z,100705.47
2023-11-08T12:12:14.948Z,100725.06
2023-11-08T12:14:43.047Z,100764.44
2023-11-08T12:17:10.046Z,100716.66
2023-11-08T12:19:37.099Z,100711.91
2023-11-08T12:22:06.498Z,100682.97
2023-11-08T12:24:34.196Z,100697.84
2023-11-08T12:27:06.139Z,100709.31
2023-11-08T12:29:33.070Z,100718.50
2023-11-08T12:32:01.334Z,100716.09
2023-11-08T12:34:28.833Z,100709.31
2023-11-08T12:36:56.061Z,100711.28
2023-11-08T12:39:27.601Z,100711.56
2023-11-08T12:41:56.605Z,100695.06
2023-11-08T12:44:24.995Z,100690.91
2023-11-08T12:47:01.308Z,100697.94
2023-11-08T12:49:29.577Z,100707.38
2023-11-08T12:51:57.283Z,100675.28
2023-11-08T12:54:25.319Z,100703.22
2023-11-08T12:56:52.368Z,100707.66
2023-11-08T12:59:20.200Z,100680.41
2023-11-08T13:01:50.922Z,100699.75
2023-11-08T13:04:19.472Z,100686.28
2023-11-08T13:06:47.677Z,100682.31
2023-11-08T13:09:15.317Z,100668.28
2023-11-08T13:11:42.223Z,100650.06
2023-11-08T13:14:09.034Z,100702.50
2023-11-08T13:16:35.951Z,100622.97
2023-11-08T13:19:03.159Z,100659.88
2023-11-08T13:21:30.181Z,100671.09
2023-11-08T13:24:03.246Z,100639.19
2023-11-08T13:26:37.270Z,100622.84
2023-11-08T13:29:04.839Z,100639.03
2023-11-08T13:31:31.813Z,100644.88
2023-11-08T13:33:59.010Z,100608.22
2023-11-08T13:36:29.509Z,100619.16
2023-11-08T13:38:57.045Z,100629.41
2023-11-08T13:41:24.561Z,100618.31
2023-11-08T13:43:51.522Z,100631.09
2023-11-08T13:46:18.427Z,100605.50
2023-11-08T13:48:45.374Z,100601.47
2023-11-08T13:51:12.300Z,100624.56
2023-11-08T13:53:39.173Z,100605.59
2023-11-08T13:56:06.235Z,100606.22
2023-11-08T13:58:35.636Z,100565.13
2023-11-08T14:01:08.513Z,100587.47
2023-11-08T14:03:37.113Z,100627.91
2023-11-08T14:06:04.959Z,100606.84
2023-11-08T14:08:32.496Z,100611.84
2023-11-08T14:10:59.694Z,100591.03
2023-11-08T14:13:26.844Z,100599.47
2023-11-08T14:15:53.968Z,100610.53
2023-11-08T14:18:21.325Z,100609.56
2023-11-08T14:20:49.513Z,100595.00
2023-11-08T14:23:16.452Z,100599.47
2023-11-08T14:25:43.624Z,100599.47
2023-11-08T14:28:10.865Z,100581.63
2023-11-08T14:30:38.207Z,100594.38
2023-11-08T14:33:05.322Z,100586.19
2023-11-08T14:35:34.983Z,100575.25
2023-11-08T14:38:02.647Z,100584.97
2023-11-08T14:40:29.921Z,100573.00
2023-11-08T14:42:57.021Z,100579.28
2023-11-08T14:45:24.258Z,100561.63
2023-11-08T14:47:51.498Z,100552.72
2023-11-08T14:50:18.796Z,100563.78
2023-11-08T14:52:45.625Z,100566.53
2023-11-08T14:55:12.663Z,100541.25
2023-11-08T14:57:39.710Z,100510.09
2023-11-08T15:00:08.262Z,100534.44
2023-11-08T15:02:35.229Z,100542.47
2023-11-08T15:05:02.584Z,100539.88
2023-11-08T15:09:41.928Z,100526.88
2023-11-08T15:10:17.935Z,100550.28
2023-11-08T15:12:45.578Z,100523.22
2023-11-08T15:15:12.815Z,100522.50
2023-11-08T15:17:39.684Z,100522.09
2023-11-08T15:20:08.138Z,100518.81
2023-11-08T15:22:36.568Z,100547.72
2023-11-08T15:25:07.159Z,100508.25
2023-11-08T15:27:34.274Z,100508.25
2023-11-08T15:30:01.608Z,100511.50
2023-11-08T15:32:29.060Z,100516.28
2023-11-08T15:34:56.159Z,100507.44
2023-11-08T15:37:23.145Z,100506.28
2023-11-08T15:39:51.051Z,100488.38
2023-11-08T15:42:17.865Z,100482.66
2023-11-08T15:44:44.780Z,100482.44
2023-11-08T15:47:11.710Z,100456.53
2023-11-08T15:49:38.641Z,100503.25
2023-11-08T15:52:05.573Z,100498.13
2023-11-08T15:54:32.697Z,100496.69
2023-11-08T15:56:59.465Z,100490.47
2023-11-08T15:59:26.272Z,100491.00
2023-11-08T16:01:53.436Z,100477.97
2023-11-08T16:04:20.663Z,100471.53
2023-11-08T16:06:48.317Z,100480.69
2023-11-08T16:09:16.041Z,100479.44
2023-11-08T16:11:42.865Z,100486.13
2023-11-08T16:14:09.715Z,100449.06
2023-11-08T16:16:43.481Z,100470.06
2023-11-08T16:19:11.394Z,100485.91
2023-11-08T16:21:38.798Z,100461.63
2023-11-08T16:24:07.055Z,100471.84
2023-11-08T16:26:34.357Z,100480.41
2023-11-08T16:29:02.013Z,100473.63
2023-11-08T16:32:32.611Z,100469.66
2023-11-08T16:34:35.831Z,100469.66
2023-11-08T16:37:02.870Z,100449.47
2023-11-08T16:39:29.745Z,100469.03
2023-11-08T16:41:56.903Z,100457.78
2023-11-08T16:44:23.776Z,100453.00
2023-11-08T16:46:50.667Z,100447.03
2023-11-08T16:49:18.169Z,100455.09
2023-11-08T16:51:46.962Z,100457.38
2023-11-08T16:54:13.866Z,100456.13
2023-11-08T16:56:42.875Z,100439.66
2023-11-08T16:59:11.748Z,100436.97
2023-11-08T17:01:38.542Z,100410.19
2023-11-08T17:04:05.853Z,100373.16
2023-11-08T17:06:32.880Z,100425.53
2023-11-08T17:09:00.641Z,100430.69
2023-11-08T17:11:29.555Z,100413.22
2023-11-08T17:13:56.496Z,100389.59
2023-11-08T17:16:23.333Z,100385.31
2023-11-08T17:18:52.414Z,100378.66
2023-11-08T17:21:20.303Z,100396.47
2023-11-08T17:23:48.540Z,100398.13
2023-11-08T17:26:16.040Z,100406.56
2023-11-08T17:28:44.939Z,100418.00
2023-11-08T17:31:11.932Z,100407.91
2023-11-08T17:33:39.387Z,100415.41
2023-11-08T17:36:06.828Z,100400.31
2023-11-08T17:38:33.801Z,100403.66
2023-11-08T17:41:02.687Z,100400.31
2023-11-08T17:43:30.206Z,100381.78
2023-11-08T17:45:58.162Z,100383.44
2023-11-08T17:48:25.822Z,100389.47
2023-11-08T17:50:53.419Z,100386.59
2023-11-08T17:53:20.335Z,100385.09
2023-11-08T17:55:48.546Z,100373.75
2023-11-08T17:58:16.321Z,100366.47
2023-11-08T18:00:43.170Z,100401.31
2023-11-08T18:03:10.197Z,100395.06
2023-11-08T18:05:37.099Z,100386.63
2023-11-08T18:08:04.136Z,100383.19
2023-11-08T18:10:31.148Z,100391.34
2023-11-08T18:12:57.957Z,100382.03
2023-11-08T18:15:26.715Z,100375.78
2023-11-08T18:17:55.319Z,100361.28
2023-11-08T18:20:22.352Z,100371.81
2023-11-08T18:22:53.958Z,100369.88
2023-11-08T18:25:21.623Z,100366.91
2023-11-08T18:27:49.873Z,100370.06
2023-11-08T18:30:17.055Z,100387.97
2023-11-08T18:32:44.286Z,100377.25
2023-11-08T18:35:11.247Z,100375.47
2023-11-08T18:37:38.161Z,100369.59
2023-11-08T18:40:08.128Z,100368.81
2023-11-08T18:42:40.456Z,100330.38
2023-11-08T18:45:08.357Z,100356.81
2023-11-08T18:47:35.559Z,100357.56
2023-11-08T18:50:02.375Z,100369.34
2023-11-08T18:52:29.329Z,100364.84
2023-11-08T18:54:57.857Z,100378.59
2023-11-08T18:57:25.227Z,100361.56
2023-11-08T18:59:52.180Z,100373.91
2023-11-08T19:02:18.925Z,100371.47
2023-11-08T19:04:46.241Z,100342.66
2023-11-08T19:07:14.577Z,100357.09
2023-11-08T19:09:41.505Z,100364.63
2023-11-08T19:12:10.989Z,100347.41
2023-11-08T19:14:39.697Z,100368.13
2023-11-08T19:17:06.749Z,100348.41
2023-11-08T19:19:33.593Z,100361.56
2023-11-08T19:22:00.699Z,100326.53
2023-11-08T19:24:28.375Z,100346.78
2023-11-08T19:26:55.674Z,100306.63
2023-11-08T19:29:22.792Z,100327.75
2023-11-08T19:31:51.137Z,100334.56
2023-11-08T19:34:18.573Z,100353.78
2023-11-08T19:36:53.740Z,100322.47
2023-11-08T19:39:22.706Z,100320.94
2023-11-08T19:41:50.452Z,100310.44
2023-11-08T19:44:17.444Z,100333.94
2023-11-08T19:46:44.864Z,100329.25
2023-11-08T19:49:11.850Z,100365.09
2023-11-08T19:51:38.912Z,100341.41
2023-11-08T19:54:06.011Z,100343.56
2023-11-08T19:56:33.800Z,100336.75
2023-11-08T19:59:01.433Z,100340.41
2023-11-08T20:01:28.571Z,100326.47
2023-11-08T20:03:56.085Z,100330.78
2023-11-08T20:06:23.102Z,100328.31
2023-11-08T20:08:51.499Z,100331.66
2023-11-08T20:11:18.966Z,100306.22
2023-11-08T20:13:48.655Z,100330.19
2023-11-08T20:16:15.341Z,100318.28
2023-11-08T20:18:42.479Z,100322.75
2023-11-08T20:21:10.562Z,100310.97
2023-11-08T20:23:38.177Z,100330.72
2023-11-08T20:26:05.055Z,100308.66
2023-11-08T20:28:33.174Z,100353.44
2023-11-08T20:31:02.968Z,100360.09
2023-11-08T20:33:31.138Z,100365.84
2023-11-08T20:36:00.887Z,100361.56
2023-11-08T20:38:28.092Z,100371.56
2023-11-08T20:40:55.889Z,100352.38
2023-11-08T20:43:22.973Z,100386.78
2023-11-08T20:45:49.873Z,100392.25
2023-11-08T20:48:16.737Z,100398.31
2023-11-08T20:50:43.647Z,100365.69
2023-11-08T20:53:11.286Z,100390.69
2023-11-08T20:55:38.763Z,100389.81
2023-11-08T20:58:06.978Z,100378.44
2023-11-08T21:00:33.951Z,100433.72
2023-11-08T21:03:01.952Z,100449.06
2023-11-08T21:05:28.825Z,100434.25
2023-11-08T21:07:55.873Z,100446.03
2023-11-08T21:10:23.151Z,100439.84
2023-11-08T21:12:50.782Z,100446.88
2023-11-08T21:15:18.599Z,100467.69
2023-11-08T21:17:46.964Z,100476.13
2023-11-08T21:20:15.612Z,100472.28
2023-11-08T21:22:43.053Z,100458.31
2023-11-08T21:25:10.902Z,100457.81
2023-11-08T21:27:37.975Z,100460.06
2023-11-08T21:30:06.799Z,100468.50
2023-11-08T21:32:33.991Z,100459.09
2023-11-08T21:35:01.664Z,100463.06
2023-11-08T21:37:28.687Z,100463.66
2023-11-08T21:39:56.669Z,100455.34
2023-11-08T21:42:23.885Z,100486.69
2023-11-08T21:44:50.699Z,100487.47
2023-11-08T21:47:17.616Z,100501.00
2023-11-08T21:49:44.697Z,100495.06
2023-11-08T21:52:11.773Z,100497.03
2023-11-08T21:54:38.809Z,100511.06
2023-11-08T21:57:10.424Z,100510.00
2023-11-08T21:59:37.371Z,100513.50
2023-11-08T22:02:04.381Z,100518.88
2023-11-08T22:04:31.423Z,100527.09
2023-11-08T22:06:58.360Z,100524.88
2023-11-08T22:09:25.300Z,100533.91
2023-11-08T22:11:52.865Z,100543.47
2023-11-08T22:14:19.728Z,100546.56
2023-11-08T22:16:46.924Z,100529.13
2023-11-08T22:19:14.684Z,100540.88
2023-11-08T22:21:44.977Z,100524.72
2023-11-08T22:24:11.793Z,100552.53
2023-11-08T22:26:38.692Z,100557.66
2023-11-08T22:29:06.158Z,100538.75
2023-11-08T22:31:33.525Z,100553.84
2023-11-08T22:34:00.506Z,100544.63
2023-11-08T22:36:27.960Z,100557.78
2023-11-08T22:38:55.456Z,100569.84
2023-11-08T22:41:22.271Z,100566.44
2023-11-08T22:43:49.077Z,100565.66
2023-11-08T22:46:20.626Z,100562.78
2023-11-08T22:48:47.860Z,100578.81
2023-11-08T22:51:21.449Z,100579.09
2023-11-08T22:53:51.509Z,100585.53
2023-11-08T22:56:19.277Z,100582.50
2023-11-08T22:58:47.571Z,100580.00
2023-11-08T23:01:14.670Z,100593.94
2023-11-08T23:03:41.478Z,100610.41
2023-11-08T23:06:08.386Z,100571.72
2023-11-08T23:08:35.277Z,100601.03
2023-11-08T23:11:02.109Z,100596.59
2023-11-08T23:13:28.921Z,100613.34
2023-11-08T23:15:55.849Z,100592.31
2023-11-08T23:18:22.703Z,100621.31
2023-11-08T23:20:49.709Z,100631.94
2023-11-08T23:23:16.560Z,100607.16
2023-11-08T23:25:44.049Z,100618.56
2023-11-08T23:28:10.813Z,100630.25
2023-11-08T23:30:38.134Z,100626.91
2023-11-08T23:33:05.451Z,100630.84
2023-11-08T23:35:32.358Z,100616.88
2023-11-08T23:38:00.125Z,100625.84
2023-11-08T23:40:26.936Z,100601.66
2023-11-08T23:42:53.897Z,100635.31
2023-11-08T23:45:21.137Z,100632.91
2023-11-08T23:47:49.775Z,100651.19
2023-11-08T23:50:17.737Z,100665.00
2023-11-08T23:52:47.344Z,100637.75
2023-11-08T23:55:14.862Z,100651.34
2023-11-08T23:57:42.015Z,100645.31
